Terminal Aerodrome Forecast
Issued by NWS

Home | Current Version | Previous Version | Graphics & Text | Print | Product List | Glossary On
Versions: 1 2 3 4 5 6 7 8 9 10 11 12 13 14 15 16 17 18 19 20 21
000
FTUS43 KABR 291957 AAA
TAFATY
TAF AMD
KATY 291957Z 2920/3018 30010KT P6SM SKC
     FM300100 36006KT P6SM SKC
      TEMPO 3002/3006 6SM HZ SCT070
     FM300600 03006KT 5SM HZ BKN070
     FM301700 08007KT P6SM OVC250=

USA.gov is the U.S. government's official web portal to all federal, state and local government web resources and services.